createdAt,value
2022-12-13T00:00:31.098Z,100963.94
2022-12-13T00:02:57.361Z,100962.59
2022-12-13T00:05:23.675Z,100962.63
2022-12-13T00:07:50.039Z,100964.44
2022-12-13T00:10:16.471Z,100967.97
2022-12-13T00:12:44.117Z,100966.41
2022-12-13T00:15:11.026Z,100968.16
2022-12-13T00:17:37.402Z,100957.81
2022-12-13T00:20:04.175Z,100967.09
2022-12-13T00:22:30.474Z,100955.91
2022-12-13T00:24:56.753Z,100958.75
2022-12-13T00:27:23.200Z,100960.44
2022-12-13T00:29:50.888Z,100964.72
2022-12-13T00:32:17.306Z,100969.72
2022-12-13T00:34:43.650Z,100965.28
2022-12-13T00:37:09.939Z,100964.53
2022-12-13T00:39:36.246Z,100959.53
2022-12-13T00:42:02.566Z,100955.47
2022-12-13T00:44:28.855Z,100961.78
2022-12-13T00:46:56.573Z,100957.53
2022-12-13T00:49:22.958Z,100957.50
2022-12-13T00:51:49.506Z,100946.91
2022-12-13T00:54:16.095Z,100951.03
2022-12-13T00:56:42.392Z,100952.63
2022-12-13T00:59:09.625Z,100948.94
2022-12-13T01:01:36.407Z,100947.94
2022-12-13T01:04:04.762Z,100941.66
2022-12-13T01:06:33.299Z,100944.22
2022-12-13T01:09:00.031Z,100949.28
2022-12-13T01:11:26.352Z,100945.78
2022-12-13T01:13:52.676Z,100942.41
2022-12-13T01:16:19.069Z,100942.88
2022-12-13T01:18:45.397Z,100938.88
2022-12-13T01:21:14.188Z,100931.25
2022-12-13T01:23:40.532Z,100937.19
2022-12-13T01:26:07.971Z,100938.03
2022-12-13T01:28:34.238Z,100934.88
2022-12-13T01:31:01.454Z,100941.25
2022-12-13T01:33:27.992Z,100942.50
2022-12-13T01:35:54.422Z,100940.13
2022-12-13T01:38:26.202Z,100950.69
2022-12-13T01:40:53.290Z,100947.41
2022-12-13T01:43:25.765Z,100946.53
2022-12-13T01:45:52.185Z,100946.47
2022-12-13T01:48:22.855Z,100951.66
2022-12-13T01:50:51.583Z,100953.28
2022-12-13T01:53:19.920Z,100952.44
2022-12-13T01:55:49.627Z,100954.19
2022-12-13T01:58:16.465Z,100951.69
2022-12-13T02:00:43.463Z,100955.28
2022-12-13T02:03:09.974Z,100951.91
2022-12-13T02:05:53.342Z,100953.91
2022-12-13T02:08:19.910Z,100948.97
2022-12-13T02:10:47.620Z,100955.81
2022-12-13T02:13:13.911Z,100953.16
2022-12-13T02:15:46.392Z,100952.31
2022-12-13T02:18:18.942Z,100953.16
2022-12-13T02:20:57.277Z,100959.09
2022-12-13T02:23:41.425Z,100959.31
2022-12-13T02:26:29.960Z,100954.31
2022-12-13T02:29:05.758Z,100952.53
2022-12-13T02:31:38.036Z,100950.84
2022-12-13T02:34:06.755Z,100951.63
2022-12-13T02:36:37.038Z,100948.09
2022-12-13T02:39:07.610Z,100947.94
2022-12-13T02:41:37.244Z,100946.91
2022-12-13T02:44:22.253Z,100936.38
2022-12-13T02:46:51.716Z,100938.06
2022-12-13T02:49:19.173Z,100940.59
2022-12-13T02:51:45.570Z,100933.63
2022-12-13T02:54:11.860Z,100926.72
2022-12-13T02:56:38.160Z,100931.84
2022-12-13T02:59:09.759Z,100929.16
2022-12-13T03:01:42.712Z,100928.13
2022-12-13T03:04:13.027Z,100925.38
2022-12-13T03:06:52.770Z,100924.50
2022-12-13T03:09:25.772Z,100916.59
2022-12-13T03:12:10.996Z,100917.44
2022-12-13T03:14:40.014Z,100922.66
2022-12-13T03:17:07.581Z,100922.63
2022-12-13T03:19:35.287Z,100926.94
2022-12-13T03:22:05.065Z,100939.00
2022-12-13T03:24:31.443Z,100921.66
2022-12-13T03:26:57.771Z,100919.88
2022-12-13T03:29:24.905Z,100918.13
2022-12-13T03:31:51.537Z,100915.53
2022-12-13T03:34:23.159Z,100922.38
2022-12-13T03:36:51.897Z,100923.22
2022-12-13T03:39:18.569Z,100922.38
2022-12-13T03:41:45.027Z,100916.38
2022-12-13T03:44:11.441Z,100914.66
2022-12-13T03:46:37.781Z,100910.31
2022-12-13T03:49:04.145Z,100917.19
2022-12-13T03:51:30.424Z,100920.69
2022-12-13T03:53:58.045Z,100919.03
2022-12-13T03:56:24.352Z,100916.44
2022-12-13T03:58:50.663Z,100917.34
2022-12-13T04:01:17.414Z,100919.09
2022-12-13T04:03:44.627Z,100914.91
2022-12-13T04:06:11.712Z,100918.28
2022-12-13T04:08:38.719Z,100911.31
2022-12-13T04:11:07.047Z,100907.81
2022-12-13T04:13:33.336Z,100913.00
2022-12-13T04:16:00.198Z,100905.28
2022-12-13T04:18:26.580Z,100904.44
2022-12-13T04:20:53.487Z,100898.41
2022-12-13T04:23:19.779Z,100899.25
2022-12-13T04:25:46.082Z,100903.59
2022-12-13T04:28:22.103Z,100904.53
2022-12-13T04:30:52.924Z,100894.13
2022-12-13T04:33:20.476Z,100894.09
2022-12-13T04:35:46.793Z,100898.38
2022-12-13T04:38:13.062Z,100895.78
2022-12-13T04:40:39.543Z,100891.44
2022-12-13T04:43:05.837Z,100899.25
2022-12-13T04:45:33.562Z,100898.38
2022-12-13T04:47:59.912Z,100892.28
2022-12-13T04:50:26.188Z,100882.81
2022-12-13T04:52:52.469Z,100875.31
2022-12-13T04:55:18.770Z,100874.44
2022-12-13T04:57:45.110Z,100869.31
2022-12-13T05:00:12.052Z,100868.53
2022-12-13T05:02:39.774Z,100865.88
2022-12-13T05:05:06.595Z,100862.41
2022-12-13T05:07:32.908Z,100870.16
2022-12-13T05:09:59.182Z,100858.13
2022-12-13T05:12:25.489Z,100864.09
2022-12-13T05:14:51.830Z,100861.56
2022-12-13T05:17:18.119Z,100863.31
2022-12-13T05:19:45.715Z,100862.56
2022-12-13T05:22:17.761Z,100863.34
2022-12-13T05:24:45.919Z,100866.84
2022-12-13T05:27:24.426Z,100856.47
2022-12-13T05:30:02.085Z,100864.31
2022-12-13T05:32:31.028Z,100852.19
2022-12-13T05:34:58.692Z,100855.69
2022-12-13T05:37:25.005Z,100859.13
2022-12-13T05:39:51.295Z,100866.03
2022-12-13T05:42:17.616Z,100858.22
2022-12-13T05:44:43.931Z,100859.25
2022-12-13T05:47:10.250Z,100857.63
2022-12-13T05:49:36.530Z,100861.94
2022-12-13T05:52:14.943Z,100860.31
2022-12-13T05:54:43.012Z,100859.47
2022-12-13T05:57:09.422Z,100856.88
2022-12-13T05:59:35.707Z,100854.34
2022-12-13T06:02:02.124Z,100850.09
2022-12-13T06:04:28.514Z,100853.44
2022-12-13T06:06:54.792Z,100857.75
2022-12-13T06:09:22.565Z,100859.34
2022-12-13T06:11:49.290Z,100858.63
2022-12-13T06:14:21.583Z,100861.25
2022-12-13T06:16:48.401Z,100863.00
2022-12-13T06:19:14.733Z,100858.66
2022-12-13T06:21:46.033Z,100868.03
2022-12-13T06:24:17.409Z,100867.19
2022-12-13T06:26:45.918Z,100860.34
2022-12-13T06:29:12.734Z,100859.50
2022-12-13T06:31:54.668Z,100868.16
2022-12-13T06:34:28.274Z,100860.31
2022-12-13T06:36:54.591Z,100860.34
2022-12-13T06:39:20.980Z,100862.16
2022-12-13T06:41:48.645Z,100857.03
2022-12-13T06:44:14.995Z,100861.31
2022-12-13T06:46:41.385Z,100856.25
2022-12-13T06:49:07.758Z,100855.41
2022-12-13T06:51:34.630Z,100856.34
2022-12-13T06:54:01.093Z,100858.91
2022-12-13T06:56:27.612Z,100851.97
2022-12-13T06:59:01.554Z,100855.47
2022-12-13T07:01:28.825Z,100853.72
2022-12-13T07:04:03.502Z,100850.38
2022-12-13T07:06:29.819Z,100855.56
2022-12-13T07:08:57.198Z,100853.91
2022-12-13T07:11:24.570Z,100857.34
2022-12-13T07:13:51.022Z,100858.25
2022-12-13T07:16:19.113Z,100856.56
2022-12-13T07:18:45.441Z,100864.31
2022-12-13T07:21:21.545Z,100862.66
2022-12-13T07:23:48.334Z,100863.56
2022-12-13T07:26:21.366Z,100859.28
2022-12-13T07:28:52.934Z,100852.50
2022-12-13T07:31:23.027Z,100851.50
2022-12-13T07:33:49.528Z,100851.50
2022-12-13T07:36:17.273Z,100856.63
2022-12-13T07:38:43.603Z,100857.50
2022-12-13T07:41:11.535Z,100861.91
2022-12-13T07:43:37.850Z,100871.41
2022-12-13T07:46:05.673Z,100875.75
2022-12-13T07:48:33.318Z,100877.50
2022-12-13T07:51:01.376Z,100875.81
2022-12-13T07:53:27.920Z,100871.41
2022-12-13T07:56:00.998Z,100882.56
2022-12-13T07:58:27.308Z,100875.59
2022-12-13T08:00:53.641Z,100888.47
2022-12-13T08:03:24.988Z,100890.94
2022-12-13T08:05:59.427Z,100881.34
2022-12-13T08:08:30.816Z,100887.19
2022-12-13T08:11:01.408Z,100886.13
2022-12-13T08:13:28.193Z,100880.91
2022-12-13T08:15:57.361Z,100880.69
2022-12-13T08:18:23.713Z,100884.84
2022-12-13T08:20:50.013Z,100884.56
2022-12-13T08:23:17.617Z,100886.13
2022-12-13T08:25:49.974Z,100890.25
2022-12-13T08:28:16.291Z,100889.31
2022-12-13T08:30:42.603Z,100893.63
2022-12-13T08:33:08.946Z,100892.59
2022-12-13T08:35:35.425Z,100890.06
2022-12-13T08:38:01.864Z,100903.66
2022-12-13T08:40:29.503Z,100903.50
2022-12-13T08:42:55.862Z,100912.13
2022-12-13T08:45:22.474Z,100900.66
2022-12-13T08:47:48.776Z,100898.75
2022-12-13T08:50:15.679Z,100895.09
2022-12-13T08:52:42.634Z,100894.03
2022-12-13T08:55:09.341Z,100901.53
2022-12-13T08:57:37.139Z,100903.13
2022-12-13T09:00:03.855Z,100897.84
2022-12-13T09:02:30.193Z,100903.72
2022-12-13T09:05:04.532Z,100907.91
2022-12-13T09:07:30.834Z,100913.72
2022-12-13T09:09:57.140Z,100929.06
2022-12-13T09:12:30.826Z,100921.03
2022-12-13T09:15:00.977Z,100912.91
2022-12-13T09:17:29.411Z,100902.28
2022-12-13T09:20:09.978Z,100906.38
2022-12-13T09:22:50.252Z,100901.84
2022-12-13T09:25:24.216Z,100899.19
2022-12-13T09:27:50.836Z,100895.50
2022-12-13T09:30:18.504Z,100899.00
2022-12-13T09:32:44.815Z,100900.44
2022-12-13T09:35:11.124Z,100902.19
2022-12-13T09:37:42.579Z,100901.03
2022-12-13T09:40:25.913Z,100909.53
2022-12-13T09:43:11.961Z,100901.63
2022-12-13T09:45:44.093Z,100905.72
2022-12-13T09:48:22.497Z,100899.56
2022-12-13T09:50:57.903Z,100894.03
2022-12-13T09:53:36.722Z,100894.41
2022-12-13T09:56:11.006Z,100901.97
2022-12-13T09:58:37.784Z,100893.91
2022-12-13T10:01:07.733Z,100895.25
2022-12-13T10:03:34.125Z,100894.03
2022-12-13T10:06:01.942Z,100883.34
2022-12-13T10:08:31.388Z,100883.84
2022-12-13T10:10:57.691Z,100887.09
2022-12-13T10:13:27.446Z,100886.66
2022-12-13T10:15:57.183Z,100886.25
2022-12-13T10:18:32.234Z,100878.19
2022-12-13T10:20:58.970Z,100867.56
2022-12-13T10:23:59.284Z,100875.84
2022-12-13T10:26:14.916Z,100870.13
2022-12-13T10:29:00.892Z,100867.84
2022-12-13T10:31:27.232Z,100851.97
2022-12-13T10:33:56.236Z,100853.53
2022-12-13T10:36:30.679Z,100851.59
2022-12-13T10:38:57.341Z,100840.53
2022-12-13T10:41:28.413Z,100840.53
2022-12-13T10:44:08.396Z,100843.34
2022-12-13T10:46:38.878Z,100839.63
2022-12-13T10:49:16.165Z,100839.47
2022-12-13T10:51:44.770Z,100850.63
2022-12-13T10:54:14.982Z,100834.47
2022-12-13T10:56:44.603Z,100830.75
2022-12-13T10:59:17.712Z,100825.16
2022-12-13T11:01:44.332Z,100816.94
2022-12-13T11:04:26.923Z,100813.28
2022-12-13T11:06:54.014Z,100811.34
2022-12-13T11:09:28.667Z,100803.16
2022-12-13T11:11:58.346Z,100810.22
2022-12-13T11:14:32.257Z,100809.50
2022-12-13T11:17:00.891Z,100797.41
2022-12-13T11:19:32.498Z,100798.34
2022-12-13T11:21:59.371Z,100796.41
2022-12-13T11:24:28.335Z,100801.41
2022-12-13T11:26:57.260Z,100790.66
2022-12-13T11:29:42.786Z,100794.72
2022-12-13T11:32:13.348Z,100794.81
2022-12-13T11:34:54.583Z,100801.63
2022-12-13T11:37:25.340Z,100794.72
2022-12-13T11:39:53.915Z,100800.78
2022-12-13T11:42:30.457Z,100788.81
2022-12-13T11:45:00.615Z,100787.22
2022-12-13T11:47:31.445Z,100792.59
2022-12-13T11:50:00.475Z,100787.47
2022-12-13T11:52:28.832Z,100786.78
2022-12-13T11:54:58.405Z,100791.28
2022-12-13T11:57:32.246Z,100781.66
2022-12-13T12:00:03.029Z,100777.13
2022-12-13T12:02:33.025Z,100769.06
2022-12-13T12:05:02.814Z,100768.84
2022-12-13T12:07:33.907Z,100765.81
2022-12-13T12:10:04.318Z,100757.09
2022-12-13T12:12:32.211Z,100752.56
2022-12-13T12:15:05.664Z,100735.69
2022-12-13T12:17:42.256Z,100735.53
2022-12-13T12:20:13.130Z,100739.56
2022-12-13T12:22:42.667Z,100731.84
2022-12-13T12:25:22.073Z,100734.09
2022-12-13T12:27:51.329Z,100733.03
2022-12-13T12:30:23.692Z,100732.13
2022-12-13T12:33:00.137Z,100725.63
2022-12-13T12:35:46.041Z,100728.91
2022-12-13T12:38:20.280Z,100733.94
2022-12-13T12:43:44.735Z,100740.44
2022-12-13T12:46:21.352Z,100742.38
2022-12-13T12:49:03.463Z,100740.75
2022-12-13T12:51:34.203Z,100741.28
2022-12-13T12:54:08.154Z,100732.84
2022-12-13T12:56:39.997Z,100728.81
2022-12-13T12:59:11.955Z,100740.91
2022-12-13T13:01:49.031Z,100741.94
2022-12-13T13:04:22.947Z,100749.78
2022-12-13T13:06:53.081Z,100739.34
2022-12-13T13:09:28.794Z,100743.38
2022-12-13T13:11:57.473Z,100737.38
2022-12-13T13:14:27.113Z,100737.38
2022-12-13T13:16:53.559Z,100728.66
2022-12-13T13:19:34.762Z,100727.72
2022-12-13T13:22:02.706Z,100726.81
2022-12-13T13:24:29.832Z,100732.84
2022-12-13T13:26:57.471Z,100728.66
2022-12-13T13:29:31.012Z,100728.66
2022-12-13T13:32:01.873Z,100722.59
2022-12-13T13:34:29.737Z,100729.66
2022-12-13T13:36:56.545Z,100727.88
2022-12-13T13:39:38.902Z,100725.28
2022-12-13T13:42:15.633Z,100722.59
2022-12-13T13:44:56.850Z,100711.31
2022-12-13T13:47:36.974Z,100708.72
2022-12-13T13:50:13.311Z,100721.66
2022-12-13T13:52:44.454Z,100713.38
2022-12-13T13:55:38.682Z,100705.34
2022-12-13T13:58:25.024Z,100686.47
2022-12-13T14:01:03.127Z,100682.94
2022-12-13T14:03:46.257Z,100693.53
2022-12-13T14:06:33.648Z,100676.13
2022-12-13T14:09:11.823Z,100673.44
2022-12-13T14:11:50.481Z,100670.00
2022-12-13T14:14:38.501Z,100669.06
2022-12-13T14:17:26.086Z,100663.25
2022-12-13T14:20:09.872Z,100672.69
2022-12-13T14:22:40.859Z,100665.94
2022-12-13T14:25:21.585Z,100666.78
2022-12-13T14:27:53.474Z,100663.41
2022-12-13T14:30:28.369Z,100668.63
2022-12-13T14:32:56.211Z,100667.69
2022-12-13T14:35:25.603Z,100666.28
2022-12-13T14:37:56.458Z,100662.84
2022-12-13T14:40:24.993Z,100657.56
2022-12-13T14:42:52.982Z,100656.03
2022-12-13T14:45:22.563Z,100650.13
2022-12-13T14:47:48.944Z,100654.53
2022-12-13T14:50:17.194Z,100650.13
2022-12-13T14:52:44.050Z,100652.84
2022-12-13T14:55:21.403Z,100651.94
2022-12-13T14:57:51.731Z,100658.22
2022-12-13T15:00:24.411Z,100653.19
2022-12-13T15:02:51.694Z,100652.34
2022-12-13T15:05:28.963Z,100656.91
2022-12-13T15:07:56.294Z,100652.50
2022-12-13T15:10:24.086Z,100635.28
2022-12-13T15:12:51.176Z,100630.09
2022-12-13T15:15:21.616Z,100625.72
2022-12-13T15:17:49.291Z,100630.31
2022-12-13T15:20:23.421Z,100633.09
2022-12-13T15:22:56.431Z,100636.66
2022-12-13T15:25:22.940Z,100631.44
2022-12-13T15:27:50.394Z,100631.44
2022-12-13T15:30:16.713Z,100634.34
2022-12-13T15:32:57.911Z,100628.16
2022-12-13T15:35:27.204Z,100631.00
2022-12-13T15:37:53.502Z,100631.25
2022-12-13T15:40:19.859Z,100624.44
2022-12-13T15:42:46.845Z,100622.91
2022-12-13T15:45:19.064Z,100613.25
2022-12-13T15:47:45.635Z,100605.03
2022-12-13T15:50:26.835Z,100604.88
2022-12-13T15:52:58.776Z,100604.13
2022-12-13T15:55:28.471Z,100597.22
2022-12-13T15:57:55.806Z,100592.19
2022-12-13T16:00:30.757Z,100593.03
2022-12-13T16:03:00.174Z,100599.00
2022-12-13T16:05:36.031Z,100593.03
2022-12-13T16:08:14.418Z,100600.75
2022-12-13T16:10:45.868Z,100598.91
2022-12-13T16:13:21.339Z,100597.31
2022-12-13T16:15:53.114Z,100595.69
2022-12-13T16:18:31.743Z,100595.69
2022-12-13T16:20:58.245Z,100588.06
2022-12-13T16:23:27.382Z,100593.59
2022-12-13T16:25:54.362Z,100590.75
2022-12-13T16:28:20.677Z,100594.28
2022-12-13T16:30:56.880Z,100598.56
2022-12-13T16:33:26.370Z,100596.34
2022-12-13T16:35:53.996Z,100598.47
2022-12-13T16:38:26.669Z,100603.41
2022-12-13T16:40:55.591Z,100597.28
2022-12-13T16:43:27.808Z,100600.72
2022-12-13T16:45:57.865Z,100598.13
2022-12-13T16:48:24.545Z,100589.47
2022-12-13T16:50:57.934Z,100590.50
2022-12-13T16:53:24.864Z,100586.13
2022-12-13T16:55:58.407Z,100592.19
2022-12-13T16:58:26.645Z,100586.28
2022-12-13T17:00:52.989Z,100587.97
2022-12-13T17:03:26.156Z,100594.88
2022-12-13T17:05:58.684Z,100587.97
2022-12-13T17:08:25.307Z,100585.38
2022-12-13T17:10:58.398Z,100584.59
2022-12-13T17:13:25.244Z,100584.53
2022-12-13T17:15:59.625Z,100578.63
2022-12-13T17:18:26.439Z,100581.31
2022-12-13T17:20:58.936Z,100581.31
2022-12-13T17:23:25.753Z,100577.22
2022-12-13T17:25:57.876Z,100578.91
2022-12-13T17:28:24.730Z,100578.06
2022-12-13T17:30:54.919Z,100581.59
2022-12-13T17:33:24.347Z,100573.78
2022-12-13T17:35:50.937Z,100579.72
2022-12-13T17:38:17.254Z,100580.56
2022-12-13T17:40:47.510Z,100581.41
2022-12-13T17:43:32.759Z,100576.13
2022-12-13T17:46:01.157Z,100589.19
2022-12-13T17:48:34.056Z,100577.88
2022-12-13T17:51:04.308Z,100572.50
2022-12-13T17:53:30.632Z,100572.59
2022-12-13T17:55:57.407Z,100574.34
2022-12-13T17:58:23.955Z,100575.19
2022-12-13T18:00:50.572Z,100570.00
2022-12-13T18:03:16.879Z,100566.47
2022-12-13T18:05:44.695Z,100571.69
2022-12-13T18:08:11.271Z,100576.03
2022-12-13T18:10:37.573Z,100575.97
2022-12-13T18:13:03.891Z,100573.50
2022-12-13T18:15:30.244Z,100575.97
2022-12-13T18:18:12.678Z,100574.34
2022-12-13T18:20:39.175Z,100576.03
2022-12-13T18:23:06.925Z,100576.03
2022-12-13T18:25:33.269Z,100572.50
2022-12-13T18:28:01.312Z,100575.28
2022-12-13T18:30:27.737Z,100573.34
2022-12-13T18:32:54.078Z,100570.84
2022-12-13T18:35:20.414Z,100569.91
2022-12-13T18:37:46.719Z,100565.63
2022-12-13T18:40:14.345Z,100563.88
2022-12-13T18:42:40.640Z,100555.22
2022-12-13T18:45:07.285Z,100550.84
2022-12-13T18:47:33.623Z,100554.31
2022-12-13T18:49:59.952Z,100553.63
2022-12-13T18:52:26.279Z,100546.66
2022-12-13T18:54:54.348Z,100545.81
2022-12-13T18:57:22.481Z,100550.19
2022-12-13T18:59:54.512Z,100534.75
2022-12-13T19:02:21.490Z,100536.44
2022-12-13T19:04:54.943Z,100535.47
2022-12-13T19:07:22.167Z,100528.72
2022-12-13T19:09:54.690Z,100534.75
2022-12-13T19:12:24.479Z,100528.72
2022-12-13T19:14:54.572Z,100516.53
2022-12-13T19:17:21.543Z,100515.78
2022-12-13T19:19:48.428Z,100515.78
2022-12-13T19:22:15.071Z,100507.13
2022-12-13T19:24:41.396Z,100503.53
2022-12-13T19:27:07.681Z,100504.38
2022-12-13T19:29:35.400Z,100507.91
2022-12-13T19:32:01.732Z,100501.78
2022-12-13T19:34:28.061Z,100506.97
2022-12-13T19:36:54.392Z,100502.69
2022-12-13T19:39:20.782Z,100493.13
2022-12-13T19:41:47.106Z,100498.50
2022-12-13T19:44:13.402Z,100490.75
2022-12-13T19:46:41.101Z,100491.75
2022-12-13T19:49:07.435Z,100490.75
2022-12-13T19:51:39.224Z,100487.16
2022-12-13T19:54:06.206Z,100486.25
2022-12-13T19:56:32.507Z,100472.47
2022-12-13T19:58:58.823Z,100467.44
2022-12-13T20:01:25.129Z,100473.56
2022-12-13T20:03:52.819Z,100466.66
2022-12-13T20:06:20.675Z,100458.63
2022-12-13T20:08:47.005Z,100459.53
2022-12-13T20:11:14.518Z,100455.19
2022-12-13T20:13:41.321Z,100448.31
2022-12-13T20:16:07.713Z,100444.84
2022-12-13T20:18:34.268Z,100444.78
2022-12-13T20:21:11.531Z,100440.50
2022-12-13T20:23:38.652Z,100435.38
2022-12-13T20:26:06.051Z,100426.72
2022-12-13T20:28:32.553Z,100418.69
2022-12-13T20:31:05.594Z,100417.91
2022-12-13T20:33:32.010Z,100414.31
2022-12-13T20:36:23.632Z,100410.03
2022-12-13T20:38:48.756Z,100416.91
2022-12-13T20:41:15.086Z,100410.19
2022-12-13T20:43:41.648Z,100414.56
2022-12-13T20:46:08.847Z,100410.19
2022-12-13T20:48:35.638Z,100408.44
2022-12-13T20:51:04.482Z,100403.91
2022-12-13T20:53:31.026Z,100397.19
2022-12-13T20:55:57.601Z,100400.63
2022-12-13T20:58:23.970Z,100391.22
2022-12-13T21:00:50.383Z,100389.38
2022-12-13T21:03:16.690Z,100391.22
2022-12-13T21:05:42.966Z,100382.69
2022-12-13T21:08:10.592Z,100385.09
2022-12-13T21:10:36.895Z,100372.19
2022-12-13T21:13:03.228Z,100370.53
2022-12-13T21:15:29.550Z,100364.50
2022-12-13T21:17:55.915Z,100351.47
2022-12-13T21:20:22.378Z,100351.56
2022-12-13T21:22:48.725Z,100347.13
2022-12-13T21:25:16.566Z,100349.72
2022-12-13T21:27:42.840Z,100354.94
2022-12-13T21:30:09.717Z,100350.53
2022-12-13T21:32:35.986Z,100347.28
2022-12-13T21:35:02.300Z,100354.94
2022-12-13T21:37:28.599Z,100349.81
2022-12-13T21:39:54.927Z,100339.47
2022-12-13T21:42:22.557Z,100336.03
2022-12-13T21:44:48.843Z,100328.16
2022-12-13T21:47:15.163Z,100328.25
2022-12-13T21:49:41.475Z,100325.03
2022-12-13T21:52:07.807Z,100324.28
2022-12-13T21:54:34.128Z,100318.91
2022-12-13T21:57:00.431Z,100317.09
2022-12-13T21:59:28.520Z,100317.09
2022-12-13T22:01:56.323Z,100313.72
2022-12-13T22:04:22.675Z,100315.69
2022-12-13T22:06:48.993Z,100314.66
2022-12-13T22:09:15.281Z,100315.41
2022-12-13T22:11:41.606Z,100305.34
2022-12-13T22:14:07.966Z,100306.09
2022-12-13T22:16:35.777Z,100298.19
2022-12-13T22:19:02.120Z,100296.63
2022-12-13T22:21:28.419Z,100300.88
2022-12-13T22:23:54.950Z,100288.25
2022-12-13T22:26:21.460Z,100288.41
2022-12-13T22:28:47.778Z,100282.66
2022-12-13T22:31:14.093Z,100283.03
2022-12-13T22:33:41.703Z,100291.28
2022-12-13T22:36:08.318Z,100286.94
2022-12-13T22:38:34.632Z,100288.59
2022-12-13T22:41:01.463Z,100291.00
2022-12-13T22:43:27.759Z,100289.53
2022-12-13T22:46:00.379Z,100287.66
2022-12-13T22:48:26.973Z,100287.75
2022-12-13T22:50:54.903Z,100288.59
2022-12-13T22:53:21.213Z,100283.66
2022-12-13T22:55:47.508Z,100282.72
2022-12-13T22:58:13.786Z,100288.69
2022-12-13T23:00:40.154Z,100285.25
2022-12-13T23:03:06.569Z,100279.97
2022-12-13T23:05:32.891Z,100280.13
2022-12-13T23:08:00.530Z,100281.81
2022-12-13T23:10:26.841Z,100289.84
2022-12-13T23:12:53.160Z,100286.41
2022-12-13T23:15:19.620Z,100285.50
2022-12-13T23:17:45.899Z,100289.44
2022-12-13T23:20:12.269Z,100280.72
2022-12-13T23:22:38.561Z,100274.63
2022-12-13T23:25:06.740Z,100277.06
2022-12-13T23:27:33.039Z,100270.81
2022-12-13T23:29:59.339Z,100272.41
2022-12-13T23:32:25.640Z,100266.28
2022-12-13T23:34:51.956Z,100270.81
2022-12-13T23:37:18.289Z,100272.50
2022-12-13T23:39:44.562Z,100266.13
2022-12-13T23:42:12.244Z,100262.59
2022-12-13T23:44:38.554Z,100253.84
2022-12-13T23:47:04.873Z,100247.72
2022-12-13T23:49:31.200Z,100251.91
2022-12-13T23:51:57.521Z,100248.31
2022-12-13T23:54:23.811Z,100249.81
2022-12-13T23:56:50.108Z,100242.94
2022-12-13T23:59:17.736Z,100246.47
